Time;durP1;ratioP1;P1;durP2;ratioP2;P2;SDS_P1;SDS_P2;PMS_P1;PMS_P2;Temp;Humidity;BMP_temperature;BMP_pressure;BME280_temperature;BME280_humidity;BME280_pressure;Samples;Min_cycle;Max_cycle;Signal;HPM_P1;HPM_P2
2021/10/04 00:01:13;;;;;;;0.50;0.50;;;15.30;99.90;;;;;;5050724;28;20933;-68
2021/10/04 00:03:39;;;;;;;1.80;0.80;;;15.30;99.90;;;;;;5050626;28;20662;-68
2021/10/04 00:06:06;;;;;;;0.70;0.70;;;15.30;99.90;;;;;;5050739;28;20535;-68
2021/10/04 00:08:31;;;;;;;1.23;1.00;;;15.30;99.90;;;;;;5049853;28;20412;-68
2021/10/04 00:10:57;;;;;;;1.97;0.83;;;15.20;99.90;;;;;;5050688;28;20897;-68
2021/10/04 00:13:23;;;;;;;0.80;0.63;;;15.20;99.90;;;;;;5051232;28;20613;-67
2021/10/04 00:15:49;;;;;;;0.70;0.70;;;15.20;99.90;;;;;;5050492;28;20174;-68
2021/10/04 00:18:15;;;;;;;1.73;1.13;;;15.20;99.90;;;;;;5049932;28;20208;-68
2021/10/04 00:20:41;;;;;;;0.90;0.90;;;15.20;99.90;;;;;;5050555;27;20177;-67
2021/10/04 00:23:07;;;;;;;0.70;0.70;;;15.10;99.90;;;;;;5050582;28;20944;-68
2021/10/04 00:25:33;;;;;;;1.33;1.23;;;15.10;99.90;;;;;;5050539;28;20440;-68
2021/10/04 00:27:59;;;;;;;1.90;0.87;;;15.10;99.90;;;;;;5050090;28;20490;-68
2021/10/04 00:30:25;;;;;;;0.80;0.77;;;15.00;99.90;;;;;;5050245;28;20430;-68
2021/10/04 00:32:52;;;;;;;1.10;1.10;;;15.00;99.90;;;;;;5050093;28;20419;-68
2021/10/04 00:35:20;;;;;;;1.20;1.00;;;15.00;99.90;;;;;;5050406;28;20406;-68
2021/10/04 00:37:47;;;;;;;0.80;0.80;;;15.00;99.90;;;;;;5049785;28;20774;-68
2021/10/04 00:40:17;;;;;;;1.10;0.80;;;14.90;99.90;;;;;;5048798;28;20474;-68
2021/10/04 00:42:42;;;;;;;1.20;1.10;;;15.00;99.90;;;;;;5050252;28;20460;-68
2021/10/04 00:45:09;;;;;;;0.80;0.80;;;14.90;99.90;;;;;;5050098;28;20403;-68
2021/10/04 00:47:36;;;;;;;0.60;0.50;;;14.90;99.90;;;;;;5049548;28;20815;-68
2021/10/04 00:50:02;;;;;;;0.50;0.50;;;14.90;99.90;;;;;;5048803;28;20447;-68
2021/10/04 00:52:28;;;;;;;0.77;0.77;;;14.80;99.90;;;;;;5050125;28;20406;-69
2021/10/04 00:54:54;;;;;;;0.70;0.70;;;14.80;99.90;;;;;;5050195;28;20409;-68
2021/10/04 00:57:20;;;;;;;0.30;0.30;;;14.70;99.90;;;;;;5049686;28;20172;-68
2021/10/04 00:59:45;;;;;;;0.70;0.70;;;14.70;99.90;;;;;;5049870;28;20209;-68
2021/10/04 01:02:11;;;;;;;0.73;0.60;;;14.70;99.90;;;;;;5049832;28;20486;-68
2021/10/04 01:04:38;;;;;;;0.40;0.40;;;14.70;99.90;;;;;;5049864;28;20184;-68
2021/10/04 01:07:04;;;;;;;0.67;0.67;;;14.60;99.90;;;;;;5049455;28;20162;-68
2021/10/04 01:09:30;;;;;;;0.67;0.67;;;14.60;99.90;;;;;;5049961;28;20435;-68
2021/10/04 01:11:57;;;;;;;0.57;0.40;;;14.60;99.90;;;;;;5049880;28;20393;-68
2021/10/04 01:14:24;;;;;;;0.70;0.70;;;14.60;99.90;;;;;;5049986;28;20404;-68
2021/10/04 01:16:51;;;;;;;0.63;0.60;;;14.60;99.90;;;;;;5049492;28;20492;-68
2021/10/04 01:19:16;;;;;;;0.70;0.70;;;14.60;99.90;;;;;;5049836;28;20437;-68
2021/10/04 01:21:42;;;;;;;1.20;0.60;;;14.60;99.90;;;;;;5051566;28;20382;-68
2021/10/04 01:24:10;;;;;;;0.60;0.60;;;14.60;99.90;;;;;;5053168;28;20180;-68
2021/10/04 01:26:36;;;;;;;0.53;0.50;;;14.60;99.90;;;;;;5052844;28;20208;-69
2021/10/04 01:29:02;;;;;;;0.53;0.53;;;14.50;99.90;;;;;;5053319;28;20526;-68
2021/10/04 01:31:28;;;;;;;0.43;0.43;;;14.50;99.90;;;;;;5052801;28;20427;-67
2021/10/04 01:33:55;;;;;;;0.50;0.50;;;14.50;99.90;;;;;;5053186;27;20430;-68
2021/10/04 01:36:27;;;;;;;0.50;0.50;;;14.40;99.90;;;;;;5053105;28;20236;-68
2021/10/04 01:38:53;;;;;;;0.40;0.40;;;14.40;99.90;;;;;;5052029;28;20550;-68
2021/10/04 01:41:20;;;;;;;0.40;0.40;;;14.40;99.90;;;;;;5053098;28;20406;-68
2021/10/04 01:43:45;;;;;;;0.83;0.70;;;14.40;99.90;;;;;;5052919;28;20551;-68
2021/10/04 01:46:11;;;;;;;0.67;0.63;;;14.40;99.90;;;;;;5053069;28;20812;-67
2021/10/04 01:48:37;;;;;;;0.80;0.80;;;14.30;99.90;;;;;;5052609;28;20195;-67
2021/10/04 01:51:03;;;;;;;0.60;0.60;;;14.30;99.90;;;;;;5052848;28;20435;-68
2021/10/04 01:53:29;;;;;;;0.47;0.47;;;14.30;99.90;;;;;;5052604;28;20653;-68
2021/10/04 01:55:55;;;;;;;0.50;0.50;;;14.20;99.90;;;;;;5052815;28;20403;-68
2021/10/04 01:58:22;;;;;;;0.40;0.40;;;14.20;99.90;;;;;;5051023;27;20442;-68
2021/10/04 02:00:47;;;;;;;0.50;0.43;;;14.20;99.90;;;;;;5052723;28;20415;-68
2021/10/04 02:03:13;;;;;;;0.50;0.50;;;14.20;99.90;;;;;;5052757;28;20783;-68
2021/10/04 02:05:39;;;;;;;0.97;0.60;;;14.20;99.90;;;;;;5052761;27;20168;-68
2021/10/04 02:08:05;;;;;;;0.40;0.30;;;14.10;99.90;;;;;;5052033;28;20510;-68
2021/10/04 02:10:36;;;;;;;0.53;0.50;;;14.10;99.90;;;;;;5052528;28;20554;-68
2021/10/04 02:13:05;;;;;;;0.57;0.57;;;14.10;99.90;;;;;;5052582;28;20495;-68
2021/10/04 02:15:32;;;;;;;0.53;0.50;;;14.00;99.90;;;;;;5052595;28;20413;-68
2021/10/04 02:17:58;;;;;;;0.50;0.50;;;14.00;99.90;;;;;;5052154;28;20502;-68
2021/10/04 02:20:27;;;;;;;0.53;0.53;;;14.00;99.90;;;;;;5052286;28;20782;-68
2021/10/04 02:22:53;;;;;;;0.60;0.50;;;14.00;99.90;;;;;;5052172;28;20521;-68
2021/10/04 02:25:20;;;;;;;0.77;0.77;;;14.00;99.90;;;;;;5052338;28;20410;-68
2021/10/04 02:27:47;;;;;;;0.50;0.50;;;13.90;99.90;;;;;;5051815;28;20409;-68
2021/10/04 02:30:21;;;;;;;0.80;0.80;;;13.90;99.90;;;;;;5052287;28;20426;-68
2021/10/04 02:32:47;;;;;;;0.60;0.60;;;13.90;99.90;;;;;;5050549;28;20416;-68
2021/10/04 02:35:13;;;;;;;1.10;1.07;;;13.80;99.90;;;;;;5052019;28;20757;-68
2021/10/04 02:37:40;;;;;;;0.67;0.67;;;13.80;99.90;;;;;;5051624;28;20176;-69
2021/10/04 02:40:07;;;;;;;0.70;0.70;;;13.80;99.90;;;;;;5052156;27;20457;-68
2021/10/04 02:42:35;;;;;;;1.03;1.03;;;13.80;99.90;;;;;;5051936;28;20402;-68
2021/10/04 02:45:02;;;;;;;0.70;0.70;;;13.80;99.90;;;;;;5052095;28;20385;-68
2021/10/04 02:47:28;;;;;;;0.60;0.60;;;13.80;99.90;;;;;;5051513;28;20389;-68
2021/10/04 02:49:54;;;;;;;0.70;0.70;;;13.80;99.90;;;;;;5051765;27;20400;-68
2021/10/04 02:52:21;;;;;;;1.30;1.20;;;13.80;99.90;;;;;;5051496;28;20180;-68
2021/10/04 02:54:47;;;;;;;1.03;1.00;;;13.80;99.90;;;;;;5051943;28;20398;-68
2021/10/04 02:57:13;;;;;;;0.80;0.80;;;13.70;99.90;;;;;;5051472;27;20434;-68
2021/10/04 02:59:39;;;;;;;0.50;0.50;;;13.70;99.90;;;;;;5051788;28;20199;-68
2021/10/04 03:02:05;;;;;;;1.03;1.03;;;13.60;99.90;;;;;;5051472;27;20417;-67
2021/10/04 03:04:30;;;;;;;1.03;0.93;;;13.70;99.90;;;;;;5050338;28;20230;-67
2021/10/04 03:06:56;;;;;;;1.40;1.30;;;13.60;99.90;;;;;;5051305;28;20651;-67
2021/10/04 03:09:22;;;;;;;0.87;0.73;;;13.60;99.90;;;;;;5051838;28;20435;-67
2021/10/04 03:11:48;;;;;;;0.80;0.80;;;13.60;99.90;;;;;;5051623;28;20182;-67
2021/10/04 03:14:13;;;;;;;0.70;0.70;;;13.50;99.90;;;;;;5051671;28;20178;-67
2021/10/04 03:16:39;;;;;;;0.43;0.43;;;13.50;99.90;;;;;;5050853;28;20316;-67
2021/10/04 03:19:05;;;;;;;0.70;0.70;;;13.50;99.90;;;;;;5050042;28;20285;-67
2021/10/04 03:21:30;;;;;;;0.70;0.63;;;13.50;99.90;;;;;;5051387;28;20635;-67
2021/10/04 03:23:56;;;;;;;0.63;0.63;;;13.40;99.90;;;;;;5051416;28;20182;-67
2021/10/04 03:26:22;;;;;;;0.70;0.70;;;13.40;99.90;;;;;;5050139;28;20176;-67
2021/10/04 03:28:47;;;;;;;0.70;0.70;;;13.40;99.90;;;;;;5050759;28;20207;-67
2021/10/04 03:31:13;;;;;;;0.70;0.70;;;13.40;99.90;;;;;;5050940;28;20516;-68
2021/10/04 03:33:39;;;;;;;0.70;0.60;;;13.30;99.90;;;;;;5051667;28;20240;-68
2021/10/04 03:36:05;;;;;;;0.90;0.70;;;13.30;99.90;;;;;;5051074;28;20498;-68
2021/10/04 03:38:31;;;;;;;0.70;0.70;;;13.30;99.90;;;;;;5050562;28;20517;-68
2021/10/04 03:40:57;;;;;;;1.00;0.90;;;13.30;99.90;;;;;;5051229;27;20199;-68
2021/10/04 03:43:23;;;;;;;0.70;0.70;;;13.30;99.90;;;;;;5050464;28;20524;-68
2021/10/04 03:45:49;;;;;;;1.33;1.23;;;13.30;99.90;;;;;;5050706;28;20426;-68
2021/10/04 03:48:14;;;;;;;0.70;0.60;;;13.30;99.90;;;;;;5049432;27;20479;-68
2021/10/04 03:50:40;;;;;;;1.37;1.27;;;13.20;99.90;;;;;;5051135;27;20398;-68
2021/10/04 03:53:06;;;;;;;0.63;0.50;;;13.20;99.90;;;;;;5051205;27;20831;-68
2021/10/04 03:55:31;;;;;;;0.60;0.60;;;13.20;99.90;;;;;;5050673;27;20208;-68
2021/10/04 03:57:57;;;;;;;0.50;0.50;;;13.10;99.90;;;;;;5049208;27;20179;-68
2021/10/04 04:00:25;;;;;;;0.93;0.83;;;13.20;99.90;;;;;;5049552;27;20215;-68
2021/10/04 04:02:51;;;;;;;0.70;0.70;;;13.20;99.90;;;;;;5050616;28;20168;-68
2021/10/04 04:05:18;;;;;;;0.93;0.93;;;13.20;99.90;;;;;;5050574;28;20410;-68
2021/10/04 04:07:44;;;;;;;0.70;0.57;;;13.20;99.90;;;;;;5050322;28;20538;-68
2021/10/04 04:10:11;;;;;;;0.60;0.60;;;13.20;99.90;;;;;;5050546;28;20806;-68
2021/10/04 04:12:38;;;;;;;1.50;1.03;;;13.20;99.90;;;;;;5049320;28;20416;-68
2021/10/04 04:15:05;;;;;;;1.30;1.20;;;13.20;99.90;;;;;;5049439;28;20396;-68
2021/10/04 04:17:31;;;;;;;1.10;1.00;;;13.20;99.90;;;;;;5050363;28;20445;-66
2021/10/04 04:19:57;;;;;;;1.20;1.10;;;13.10;99.90;;;;;;5050286;28;20464;-66
2021/10/04 04:22:23;;;;;;;0.73;0.73;;;13.10;99.90;;;;;;5050670;28;20466;-66
2021/10/04 04:24:49;;;;;;;0.50;0.50;;;13.10;99.90;;;;;;5050645;27;20427;-66
2021/10/04 04:27:14;;;;;;;0.50;0.50;;;13.10;99.90;;;;;;5049006;28;20182;-67
2021/10/04 04:29:40;;;;;;;0.70;0.70;;;13.00;99.90;;;;;;5050708;28;20558;-66
2021/10/04 04:32:08;;;;;;;0.90;0.90;;;13.00;99.90;;;;;;5050366;28;20262;-66
2021/10/04 04:34:35;;;;;;;0.77;0.70;;;13.00;99.90;;;;;;5050314;28;20410;-66
2021/10/04 04:37:01;;;;;;;0.67;0.67;;;13.00;99.90;;;;;;5048952;28;20432;-66
2021/10/04 04:39:27;;;;;;;0.67;0.67;;;13.00;99.90;;;;;;5049783;28;20464;-66
2021/10/04 04:41:55;;;;;;;0.87;0.87;;;13.00;99.90;;;;;;5050340;28;20447;-67
2021/10/04 04:44:22;;;;;;;0.73;0.73;;;12.90;99.90;;;;;;5050164;28;20382;-66
2021/10/04 04:46:48;;;;;;;0.60;0.60;;;12.90;99.90;;;;;;5049479;28;20896;-66
2021/10/04 04:49:14;;;;;;;0.70;0.70;;;12.80;99.90;;;;;;5050001;28;20417;-66
2021/10/04 04:51:40;;;;;;;1.00;0.90;;;12.80;99.90;;;;;;5050192;27;20408;-66
2021/10/04 04:54:05;;;;;;;0.43;0.43;;;12.90;99.90;;;;;;5048948;27;20349;-66
2021/10/04 04:56:31;;;;;;;0.87;0.87;;;12.90;99.90;;;;;;5052851;28;20181;-67
2021/10/04 04:58:57;;;;;;;0.97;0.90;;;12.80;99.90;;;;;;5053276;27;20623;-66
2021/10/04 05:01:22;;;;;;;1.27;1.17;;;12.80;99.90;;;;;;5053389;27;20175;-66
2021/10/04 05:03:48;;;;;;;0.80;0.77;;;12.80;99.90;;;;;;5053425;28;20599;-66
2021/10/04 05:06:13;;;;;;;0.93;0.93;;;12.80;99.90;;;;;;5053611;27;20258;-66
2021/10/04 05:08:39;;;;;;;0.97;0.97;;;12.90;99.90;;;;;;5052993;28;20178;-66
2021/10/04 05:11:05;;;;;;;1.10;1.00;;;12.90;99.90;;;;;;5053294;27;20171;-66
2021/10/04 05:13:31;;;;;;;1.50;1.40;;;12.90;99.90;;;;;;5053439;27;20179;-66
2021/10/04 05:15:56;;;;;;;1.10;1.10;;;12.90;99.90;;;;;;5053356;28;20224;-67
2021/10/04 05:18:22;;;;;;;1.03;1.03;;;12.90;99.90;;;;;;5052780;28;20411;-67
2021/10/04 05:20:48;;;;;;;1.30;1.20;;;12.90;99.90;;;;;;5052902;28;20203;-67
2021/10/04 05:23:14;;;;;;;2.20;1.20;;;12.90;99.90;;;;;;5060274;28;20770;-65
2021/10/04 05:25:40;;;;;;;1.57;1.00;;;12.90;99.90;;;;;;5056127;27;20183;-66
2021/10/04 05:28:06;;;;;;;2.33;1.13;;;12.90;99.90;;;;;;5048094;28;20180;-70
2021/10/04 05:30:33;;;;;;;1.10;1.10;;;12.90;99.90;;;;;;5053225;28;20462;-68
2021/10/04 05:33:00;;;;;;;1.17;1.17;;;12.90;99.90;;;;;;5054268;28;20791;-67
2021/10/04 05:35:26;;;;;;;0.80;0.80;;;12.90;99.90;;;;;;5052143;28;20416;-69
2021/10/04 05:37:52;;;;;;;0.80;0.80;;;13.00;99.90;;;;;;5060834;28;20388;-67
2021/10/04 05:40:18;;;;;;;1.17;0.80;;;13.00;99.90;;;;;;5056469;28;20952;-66
2021/10/04 05:42:43;;;;;;;0.93;0.93;;;13.00;99.90;;;;;;5046473;27;20176;-67
2021/10/04 05:45:11;;;;;;;0.90;0.90;;;13.00;99.90;;;;;;5052176;27;20418;-65
2021/10/04 05:47:38;;;;;;;2.43;1.80;;;13.00;99.90;;;;;;5052237;27;20418;-67
2021/10/04 05:50:05;;;;;;;1.40;1.23;;;13.00;99.90;;;;;;5052266;28;20486;-67
2021/10/04 05:52:30;;;;;;;2.00;0.90;;;13.00;99.90;;;;;;5052446;28;20457;-67
2021/10/04 05:54:56;;;;;;;0.90;0.90;;;13.00;99.90;;;;;;5050519;27;20437;-68
2021/10/04 05:57:23;;;;;;;0.93;0.93;;;13.00;99.90;;;;;;5051200;28;20183;-67
2021/10/04 05:59:51;;;;;;;0.77;0.77;;;12.90;99.90;;;;;;5037448;28;20216;-67
2021/10/04 06:02:17;;;;;;;2.03;1.40;;;12.90;99.90;;;;;;5037484;28;20779;-66
2021/10/04 06:04:42;;;;;;;2.13;1.60;;;13.00;99.90;;;;;;5044590;27;20442;-66
2021/10/04 06:07:08;;;;;;;1.30;1.30;;;13.00;99.90;;;;;;5041488;28;20182;-65
2021/10/04 06:09:34;;;;;;;1.53;1.43;;;13.00;99.90;;;;;;5041446;28;20234;-68
2021/10/04 06:12:00;;;;;;;1.40;1.30;;;13.00;99.90;;;;;;5047038;28;20417;-65
2021/10/04 06:14:26;;;;;;;1.80;1.70;;;13.00;99.90;;;;;;5070846;28;20183;-65
2021/10/04 06:16:53;;;;;;;1.10;1.10;;;13.00;99.90;;;;;;5051629;28;20411;-65
2021/10/04 06:19:19;;;;;;;1.50;1.40;;;13.00;99.90;;;;;;5052055;28;20249;-65
2021/10/04 06:21:45;;;;;;;1.77;1.67;;;13.00;99.90;;;;;;5040157;28;20810;-66
2021/10/04 06:24:10;;;;;;;2.20;1.17;;;13.00;99.90;;;;;;5042875;27;20175;-65
2021/10/04 06:26:36;;;;;;;1.97;1.67;;;13.00;99.90;;;;;;5046758;28;20657;-66
2021/10/04 06:29:02;;;;;;;1.10;0.97;;;12.90;99.90;;;;;;5071319;28;20664;-65
2021/10/04 06:31:28;;;;;;;0.73;0.73;;;13.00;99.90;;;;;;5056203;28;20267;-67
2021/10/04 06:33:54;;;;;;;2.07;1.13;;;12.90;99.90;;;;;;5049873;28;20803;-67
2021/10/04 06:36:19;;;;;;;1.20;1.17;;;12.90;99.90;;;;;;5051723;28;20554;-65
2021/10/04 06:38:45;;;;;;;1.20;1.20;;;13.00;99.90;;;;;;5050490;28;20211;-65
2021/10/04 06:41:11;;;;;;;1.00;1.00;;;13.00;99.90;;;;;;5051505;28;20225;-64
2021/10/04 06:43:36;;;;;;;0.83;0.83;;;13.00;99.90;;;;;;5049763;28;20172;-67
2021/10/04 06:46:07;;;;;;;2.83;1.67;;;13.00;99.90;;;;;;5045176;28;20651;-64
2021/10/04 06:48:34;;;;;;;2.17;1.63;;;13.00;99.90;;;;;;5045263;28;20183;-65
2021/10/04 06:51:00;;;;;;;1.93;1.83;;;13.10;99.90;;;;;;5071700;28;20385;-66
2021/10/04 06:53:26;;;;;;;3.10;1.77;;;13.00;99.90;;;;;;5056508;27;20755;-66
2021/10/04 06:55:52;;;;;;;1.80;1.70;;;13.10;99.90;;;;;;5046066;28;20195;-66
2021/10/04 06:58:17;;;;;;;1.63;1.53;;;13.10;99.90;;;;;;5051082;27;20411;-66
2021/10/04 07:00:43;;;;;;;3.07;2.10;;;13.10;99.90;;;;;;5039564;28;20299;-65
2021/10/04 07:03:09;;;;;;;3.20;2.90;;;13.10;99.90;;;;;;5050254;27;20660;-65
2021/10/04 07:05:35;;;;;;;3.00;2.80;;;13.10;99.90;;;;;;5040056;28;20177;-66
2021/10/04 07:08:00;;;;;;;3.57;2.80;;;13.10;99.90;;;;;;5039738;28;20409;-67
2021/10/04 07:10:27;;;;;;;3.67;2.40;;;13.10;99.90;;;;;;5050847;28;20221;-65
2021/10/04 07:12:53;;;;;;;4.30;2.93;;;13.10;99.90;;;;;;5056427;28;20186;-66
2021/10/04 07:15:19;;;;;;;3.13;2.83;;;13.10;99.90;;;;;;5052307;28;20520;-64
2021/10/04 07:17:45;;;;;;;3.30;3.00;;;13.10;99.90;;;;;;5050322;28;20510;-64
2021/10/04 07:20:11;;;;;;;3.30;2.83;;;13.20;99.90;;;;;;5041086;27;20226;-68
2021/10/04 07:22:37;;;;;;;3.53;2.97;;;13.20;99.90;;;;;;5048520;28;20497;-70
2021/10/04 07:25:07;;;;;;;4.13;3.37;;;13.20;99.90;;;;;;5039674;28;20180;-66
2021/10/04 07:27:33;;;;;;;3.03;2.73;;;13.20;99.90;;;;;;5047922;28;20767;-66
2021/10/04 07:29:58;;;;;;;3.60;3.23;;;13.20;99.90;;;;;;5041833;28;20507;-67
2021/10/04 07:32:24;;;;;;;4.40;3.67;;;13.30;99.90;;;;;;5032218;28;21193;-67
2021/10/04 07:34:50;;;;;;;4.30;3.87;;;13.30;99.90;;;;;;5046285;28;20801;-65
2021/10/04 07:37:15;;;;;;;4.70;3.67;;;13.30;99.90;;;;;;5034574;28;20215;-65
2021/10/04 07:39:41;;;;;;;7.30;5.20;;;13.20;99.90;;;;;;5031350;27;20710;-65
2021/10/04 07:42:07;;;;;;;7.13;6.43;;;13.20;99.90;;;;;;5047160;28;20172;-65
2021/10/04 07:44:33;;;;;;;4.80;4.40;;;13.20;99.90;;;;;;5050724;28;20650;-64
2021/10/04 07:47:01;;;;;;;5.33;4.87;;;13.10;99.90;;;;;;5046609;28;20462;-66
2021/10/04 07:49:27;;;;;;;6.10;5.50;;;13.10;99.90;;;;;;5058436;27;20571;-64
2021/10/04 07:51:52;;;;;;;4.83;4.33;;;13.00;99.90;;;;;;5049754;28;20438;-64
2021/10/04 07:54:18;;;;;;;4.50;4.00;;;13.00;99.90;;;;;;5052778;27;20437;-64
2021/10/04 07:56:44;;;;;;;3.40;3.10;;;13.00;99.90;;;;;;5036063;28;20646;-64
2021/10/04 07:59:10;;;;;;;3.07;2.80;;;13.00;99.90;;;;;;5034821;27;20506;-64
2021/10/04 08:01:37;;;;;;;2.10;1.90;;;13.10;99.90;;;;;;5042757;28;20201;-64
2021/10/04 08:04:03;;;;;;;2.33;2.13;;;13.00;99.90;;;;;;5038439;28;20397;-64
2021/10/04 08:06:29;;;;;;;2.07;1.97;;;13.00;99.90;;;;;;5049818;28;20456;-65
2021/10/04 08:08:55;;;;;;;2.17;1.97;;;13.10;99.90;;;;;;5047628;27;20485;-64
2021/10/04 08:11:21;;;;;;;1.93;1.63;;;13.10;99.90;;;;;;5037253;28;20195;-63
2021/10/04 08:13:50;;;;;;;1.40;1.30;;;13.10;99.90;;;;;;5044528;28;20453;-63
2021/10/04 08:16:21;;;;;;;1.13;1.03;;;13.10;99.90;;;;;;5049902;28;20545;-64
2021/10/04 08:18:48;;;;;;;1.40;1.30;;;13.20;99.90;;;;;;5044372;27;21255;-63
2021/10/04 08:21:15;;;;;;;2.23;1.80;;;13.20;99.90;;;;;;5030460;28;20386;-64
2021/10/04 08:23:42;;;;;;;1.93;1.73;;;13.30;99.90;;;;;;5039311;28;20414;-65
2021/10/04 08:26:07;;;;;;;1.50;1.40;;;13.40;99.90;;;;;;5044077;28;20435;-64
2021/10/04 08:28:33;;;;;;;0.70;0.70;;;13.40;99.90;;;;;;5056431;28;20414;-67
2021/10/04 08:30:59;;;;;;;0.97;0.97;;;13.50;99.90;;;;;;5034844;28;20614;-67
2021/10/04 08:33:25;;;;;;;0.90;0.90;;;13.50;99.90;;;;;;5050170;28;20177;-66
2021/10/04 08:35:50;;;;;;;0.83;0.83;;;13.50;99.90;;;;;;5026517;28;20647;-66
2021/10/04 08:38:16;;;;;;;0.60;0.57;;;13.60;99.90;;;;;;5033280;28;20185;-66
2021/10/04 08:40:43;;;;;;;0.87;0.77;;;13.60;99.90;;;;;;5035835;28;20224;-67
2021/10/04 08:43:08;;;;;;;0.70;0.70;;;13.50;99.90;;;;;;5038353;28;20422;-66
2021/10/04 08:45:36;;;;;;;0.80;0.70;;;13.50;99.90;;;;;;5041426;28;20181;-67
2021/10/04 08:48:02;;;;;;;0.73;0.70;;;13.50;99.90;;;;;;5024129;28;20305;-66
2021/10/04 08:50:31;;;;;;;1.10;1.10;;;13.50;99.90;;;;;;5032415;28;20432;-64
2021/10/04 08:52:58;;;;;;;1.00;0.80;;;13.50;99.90;;;;;;5039544;28;20507;-65
2021/10/04 08:55:24;;;;;;;1.33;1.23;;;13.50;99.90;;;;;;5038878;28;20933;-67
2021/10/04 08:57:50;;;;;;;0.90;0.90;;;13.50;99.90;;;;;;5039958;28;20771;-66
2021/10/04 09:00:16;;;;;;;1.70;0.77;;;13.50;99.90;;;;;;5030516;28;20443;-67
2021/10/04 09:02:42;;;;;;;0.70;0.70;;;13.50;99.90;;;;;;5035140;28;20570;-68
2021/10/04 09:05:25;;;;;;;0.73;0.73;;;13.50;99.90;;;;;;5047141;28;20389;-67
2021/10/04 09:07:54;;;;;;;0.60;0.60;;;13.50;99.90;;;;;;5045506;28;20550;-67
2021/10/04 09:10:23;;;;;;;0.77;0.60;;;13.50;99.90;;;;;;5050442;28;20450;-66
2021/10/04 09:13:00;;;;;;;1.00;0.90;;;13.60;99.90;;;;;;5045684;28;20940;-68
2021/10/04 09:15:30;;;;;;;0.90;0.90;;;13.70;99.90;;;;;;5048585;28;20524;-68
2021/10/04 09:18:15;;;;;;;1.03;0.93;;;13.70;99.90;;;;;;5028512;28;20575;-68
2021/10/04 09:21:09;;;;;;;1.33;0.80;;;13.70;99.90;;;;;;5055347;28;20436;-67
2021/10/04 09:23:45;;;;;;;0.80;0.80;;;13.80;99.90;;;;;;5045673;28;20899;-67
2021/10/04 09:26:31;;;;;;;2.20;1.00;;;13.90;99.90;;;;;;5029036;28;20800;-66
2021/10/04 09:29:08;;;;;;;0.80;0.80;;;14.00;99.90;;;;;;5030462;28;20544;-64
2021/10/04 09:31:40;;;;;;;1.00;1.00;;;14.00;99.90;;;;;;5040658;28;20437;-64
2021/10/04 09:34:05;;;;;;;0.60;0.57;;;14.10;99.90;;;;;;5033526;28;20430;-63
2021/10/04 09:36:33;;;;;;;0.73;0.73;;;14.00;99.90;;;;;;5029196;28;20772;-65
2021/10/04 09:39:21;;;;;;;0.60;0.60;;;14.00;99.90;;;;;;5042489;27;20216;-65
2021/10/04 09:42:08;;;;;;;0.57;0.57;;;14.10;99.90;;;;;;5049785;28;20411;-64
2021/10/04 09:44:43;;;;;;;0.90;0.90;;;14.10;99.90;;;;;;5051603;28;20933;-68
2021/10/04 09:47:23;;;;;;;0.80;0.80;;;14.20;99.90;;;;;;5052435;28;20439;-65
2021/10/04 09:49:53;;;;;;;0.60;0.60;;;14.30;99.90;;;;;;5048940;28;20402;-66
2021/10/04 09:52:31;;;;;;;0.67;0.67;;;14.30;99.90;;;;;;5035113;28;20485;-67
2021/10/04 09:54:57;;;;;;;0.63;0.63;;;14.20;99.90;;;;;;5033273;28;20418;-67
2021/10/04 09:57:22;;;;;;;0.80;0.80;;;14.20;99.90;;;;;;5040459;27;20409;-67
2021/10/04 09:59:49;;;;;;;0.57;0.57;;;14.30;99.90;;;;;;5031639;28;20197;-68
2021/10/04 10:02:17;;;;;;;0.70;0.70;;;14.30;99.90;;;;;;5054849;28;20176;-67
2021/10/04 10:04:45;;;;;;;0.70;0.70;;;14.40;99.90;;;;;;5048919;27;20415;-67
2021/10/04 10:07:11;;;;;;;0.77;0.77;;;14.40;99.90;;;;;;5042630;28;20390;-68
2021/10/04 10:09:39;;;;;;;1.10;0.80;;;14.50;99.90;;;;;;5053644;28;20922;-69
2021/10/04 10:12:06;;;;;;;0.80;0.80;;;14.50;99.90;;;;;;5048007;27;21738;-65
2021/10/04 10:14:57;;;;;;;2.17;1.20;;;14.60;99.90;;;;;;5041141;28;20765;-65
2021/10/04 10:17:31;;;;;;;0.93;0.93;;;14.60;99.90;;;;;;5032770;28;21041;-67
2021/10/04 10:19:58;;;;;;;2.10;1.20;;;14.70;99.90;;;;;;5033662;28;20540;-68
2021/10/04 10:22:28;;;;;;;0.70;0.70;;;14.90;99.90;;;;;;5028932;28;20417;-68
2021/10/04 10:24:55;;;;;;;0.80;0.80;;;15.00;99.90;;;;;;5040918;28;20379;-66
2021/10/04 10:27:41;;;;;;;0.77;0.77;;;15.20;99.90;;;;;;5040681;28;20417;-66
2021/10/04 10:30:18;;;;;;;0.80;0.80;;;15.30;99.90;;;;;;5047880;28;20425;-66
2021/10/04 10:32:44;;;;;;;0.97;0.97;;;15.40;99.90;;;;;;5037105;27;20416;-66
2021/10/04 10:35:10;;;;;;;0.73;0.73;;;15.30;99.90;;;;;;5046450;28;20816;-67
2021/10/04 10:37:49;;;;;;;0.90;0.90;;;15.30;99.90;;;;;;5051620;27;20387;-67
2021/10/04 10:40:23;;;;;;;0.60;0.60;;;15.20;99.90;;;;;;5051869;28;20209;-66
2021/10/04 10:43:10;;;;;;;0.73;0.53;;;15.10;99.90;;;;;;5052191;28;20410;-66
2021/10/04 10:45:40;;;;;;;0.87;0.83;;;15.10;99.90;;;;;;5051762;28;20409;-67
2021/10/04 10:48:07;;;;;;;0.50;0.50;;;15.10;99.90;;;;;;5051592;28;20474;-69
2021/10/04 10:50:46;;;;;;;1.27;0.80;;;15.10;99.90;;;;;;5051715;28;20471;-69
2021/10/04 10:53:26;;;;;;;0.77;0.77;;;15.20;99.90;;;;;;5050460;28;20757;-66
2021/10/04 10:55:57;;;;;;;1.07;0.70;;;15.30;99.90;;;;;;5052075;27;20386;-65
2021/10/04 10:58:26;;;;;;;0.53;0.53;;;15.40;99.90;;;;;;5051714;27;20411;-66
2021/10/04 11:01:01;;;;;;;0.53;0.53;;;15.40;99.90;;;;;;5051100;27;20456;-65
2021/10/04 11:03:27;;;;;;;0.50;0.50;;;15.30;99.90;;;;;;5051858;28;20379;-65
2021/10/04 11:06:06;;;;;;;0.70;0.70;;;15.30;99.90;;;;;;5051953;28;20424;-66
2021/10/04 11:08:34;;;;;;;0.53;0.53;;;15.30;99.90;;;;;;5049927;28;20391;-67
2021/10/04 11:11:00;;;;;;;0.80;0.80;;;15.20;99.90;;;;;;5051502;28;20475;-67
2021/10/04 11:13:29;;;;;;;0.70;0.70;;;15.20;99.90;;;;;;5051115;28;20386;-67
2021/10/04 11:15:57;;;;;;;0.40;0.40;;;15.20;99.90;;;;;;5049979;28;20180;-67
2021/10/04 11:18:24;;;;;;;2.47;0.87;;;15.20;99.90;;;;;;5051177;27;20391;-68
2021/10/04 11:21:02;;;;;;;0.53;0.53;;;15.10;99.90;;;;;;5050772;28;20558;-68
2021/10/04 11:23:28;;;;;;;1.03;1.03;;;15.10;99.90;;;;;;5051573;28;20916;-64
2021/10/04 11:25:56;;;;;;;1.07;0.83;;;15.10;99.90;;;;;;5051387;28;20416;-64
2021/10/04 11:28:33;;;;;;;0.80;0.80;;;15.10;99.90;;;;;;5051075;28;20408;-64
2021/10/04 11:31:02;;;;;;;0.77;0.77;;;15.10;99.90;;;;;;5050370;28;20416;-65
2021/10/04 11:33:31;;;;;;;1.00;0.70;;;15.00;99.90;;;;;;5051374;28;20762;-64
2021/10/04 11:36:04;;;;;;;1.63;0.70;;;15.00;99.90;;;;;;5050797;28;20435;-64
2021/10/04 11:38:34;;;;;;;0.70;0.70;;;15.00;99.90;;;;;;5050574;28;20466;-64
2021/10/04 11:41:00;;;;;;;1.60;1.13;;;15.00;99.90;;;;;;5050566;28;20444;-64
2021/10/04 11:43:27;;;;;;;0.63;0.63;;;15.00;99.90;;;;;;5050688;28;20440;-64
2021/10/04 11:45:54;;;;;;;0.77;0.77;;;15.10;99.90;;;;;;5051108;28;20929;-63
2021/10/04 11:48:39;;;;;;;0.80;0.50;;;15.10;99.90;;;;;;5050034;28;20962;-63
2021/10/04 11:51:05;;;;;;;0.60;0.60;;;15.20;99.90;;;;;;5051049;28;20177;-63
2021/10/04 11:53:32;;;;;;;0.87;0.87;;;15.40;99.90;;;;;;5050368;28;20997;-63
2021/10/04 11:56:04;;;;;;;0.53;0.53;;;15.50;99.90;;;;;;5050922;28;20397;-63
2021/10/04 11:58:30;;;;;;;0.40;0.40;;;15.60;99.90;;;;;;5050478;28;20880;-63
2021/10/04 12:00:56;;;;;;;0.30;0.30;;;15.70;99.90;;;;;;5050716;28;20484;-64
2021/10/04 12:03:30;;;;;;;0.70;0.70;;;15.70;99.90;;;;;;5050358;28;20970;-64
2021/10/04 12:05:58;;;;;;;0.53;0.53;;;15.70;99.90;;;;;;5049533;28;20169;-62
2021/10/04 12:08:25;;;;;;;0.60;0.60;;;15.80;99.90;;;;;;5050084;28;20522;-69
2021/10/04 12:10:56;;;;;;;0.60;0.50;;;15.80;99.90;;;;;;5049887;28;20787;-66
2021/10/04 12:13:32;;;;;;;0.40;0.40;;;15.70;99.90;;;;;;5039903;28;20459;-65
2021/10/04 12:16:04;;;;;;;0.60;0.50;;;15.70;99.90;;;;;;5050553;28;20959;-65
2021/10/04 12:18:31;;;;;;;0.90;0.90;;;15.60;99.90;;;;;;5107462;27;20423;-67
2021/10/04 12:21:15;;;;;;;0.73;0.70;;;15.70;99.90;;;;;;5049622;28;20464;-65
2021/10/04 12:23:42;;;;;;;0.40;0.40;;;15.80;99.90;;;;;;5030835;28;20421;-65
2021/10/04 12:26:10;;;;;;;0.30;0.30;;;15.90;99.90;;;;;;5030914;28;20394;-66
2021/10/04 12:28:49;;;;;;;0.40;0.40;;;15.90;99.90;;;;;;5038755;28;20443;-67
2021/10/04 12:31:37;;;;;;;0.40;0.40;;;15.80;99.90;;;;;;5050094;28;20363;-66
2021/10/04 12:34:23;;;;;;;0.40;0.30;;;15.90;99.90;;;;;;5050852;28;20919;-67
2021/10/04 12:36:49;;;;;;;0.50;0.40;;;16.00;99.90;;;;;;5048192;28;20417;-68
2021/10/04 12:39:15;;;;;;;0.30;0.30;;;16.10;99.90;;;;;;5047877;28;20459;-67
2021/10/04 12:41:46;;;;;;;0.40;0.40;;;16.20;99.90;;;;;;5048171;28;20916;-67
2021/10/04 12:44:16;;;;;;;0.50;0.50;;;16.20;99.90;;;;;;5048024;28;20179;-68
2021/10/04 12:47:02;;;;;;;0.63;0.63;;;16.20;99.90;;;;;;5047858;28;20402;-67
2021/10/04 12:49:28;;;;;;;0.70;0.57;;;16.30;99.90;;;;;;5048024;28;20475;-67
2021/10/04 12:51:53;;;;;;;0.70;0.70;;;16.30;99.90;;;;;;5049091;28;20479;-67